createdAt,value
2022-10-14T00:00:30.000Z,4.132
2022-10-14T00:05:31.844Z,4.132
2022-10-14T00:10:33.513Z,4.132
2022-10-14T00:15:34.918Z,4.132
2022-10-14T00:20:36.516Z,4.132
2022-10-14T00:25:38.184Z,4.132
2022-10-14T00:30:39.588Z,4.13
2022-10-14T00:35:40.796Z,4.13
2022-10-14T00:40:42.816Z,4.13
2022-10-14T00:45:45.282Z,4.132
2022-10-14T00:50:46.862Z,4.13
2022-10-14T00:55:48.849Z,4.13
2022-10-14T01:00:50.270Z,4.13
2022-10-14T01:05:52.195Z,4.13
2022-10-14T01:10:53.541Z,4.13
2022-10-14T01:15:54.936Z,4.13
2022-10-14T01:20:56.336Z,4.13
2022-10-14T01:25:57.555Z,4.13
2022-10-14T01:31:47.213Z,4.13
2022-10-14T01:36:01.282Z,4.13
2022-10-14T01:41:02.910Z,4.13
2022-10-14T01:46:04.729Z,4.13
2022-10-14T01:51:06.664Z,4.13
2022-10-14T01:56:07.848Z,4.13
2022-10-14T02:01:09.307Z,4.13
2022-10-14T02:06:10.869Z,4.13
2022-10-14T02:11:12.994Z,4.13
2022-10-14T02:16:15.133Z,4.13
2022-10-14T02:21:16.537Z,4.128
2022-10-14T02:26:18.645Z,4.128
2022-10-14T02:31:20.438Z,4.128
2022-10-14T02:36:31.499Z,4.128
2022-10-14T02:41:33.284Z,4.128
2022-10-14T02:46:34.499Z,4.128
2022-10-14T02:51:36.627Z,4.128
2022-10-14T02:56:38.180Z,4.128
2022-10-14T03:01:40.163Z,4.128
2022-10-14T03:06:42.015Z,4.128
2022-10-14T03:11:44.001Z,4.126
2022-10-14T03:16:45.660Z,4.128
2022-10-14T03:21:47.357Z,4.128
2022-10-14T03:36:53.284Z,4.126
2022-10-14T03:46:56.870Z,4.126
2022-10-14T03:51:58.880Z,4.126
2022-10-14T03:57:00.189Z,4.126
2022-10-14T04:02:02.400Z,4.126
2022-10-14T04:07:04.315Z,4.126
2022-10-14T04:12:05.323Z,4.126
2022-10-14T04:17:06.831Z,4.126
2022-10-14T04:22:08.089Z,4.126
2022-10-14T04:27:09.921Z,4.126
2022-10-14T04:32:11.540Z,4.126
2022-10-14T04:47:15.958Z,4.126
2022-10-14T04:52:18.056Z,4.126
2022-10-14T04:57:20.165Z,4.126
2022-10-14T05:02:22.617Z,4.126
2022-10-14T05:07:23.775Z,4.126
2022-10-14T05:12:25.403Z,4.126
2022-10-14T05:17:26.883Z,4.126
2022-10-14T05:22:28.980Z,4.126
2022-10-14T05:27:30.542Z,4.126
2022-10-14T05:33:20.301Z,4.126
2022-10-14T05:37:33.961Z,4.126
2022-10-14T05:42:35.471Z,4.124
2022-10-14T05:47:37.654Z,4.124
2022-10-14T05:52:39.244Z,4.124
2022-10-14T05:57:41.328Z,4.124
2022-10-14T06:02:43.189Z,4.124
2022-10-14T06:07:44.755Z,4.124
2022-10-14T06:12:46.889Z,4.124
2022-10-14T06:17:48.651Z,4.124
2022-10-14T06:22:49.970Z,4.124
2022-10-14T06:27:51.448Z,4.124
2022-10-14T06:32:53.029Z,4.124
2022-10-14T06:37:54.556Z,4.124
2022-10-14T06:43:44.200Z,4.124
2022-10-14T06:47:58.089Z,4.124
2022-10-14T06:52:59.479Z,4.124
2022-10-14T06:58:49.219Z,4.124
2022-10-14T07:03:03.773Z,4.124
2022-10-14T07:08:05.332Z,4.124
2022-10-14T07:13:07.402Z,4.124
2022-10-14T07:18:09.564Z,4.124
2022-10-14T07:23:10.967Z,4.124
2022-10-14T07:28:12.527Z,4.124
2022-10-14T07:33:13.831Z,4.124
2022-10-14T07:38:15.736Z,4.124
2022-10-14T07:43:17.524Z,4.124
2022-10-14T07:48:23.100Z,4.126
2022-10-14T07:53:20.854Z,4.126
2022-10-14T07:58:22.550Z,4.128
2022-10-14T08:03:23.985Z,4.132
2022-10-14T08:09:13.701Z,4.132
2022-10-14T08:13:27.245Z,4.132
2022-10-14T08:18:29.054Z,4.134
2022-10-14T08:23:30.894Z,4.134
2022-10-14T08:28:32.480Z,4.136
2022-10-14T08:33:34.385Z,4.138
2022-10-14T08:38:35.677Z,4.138
2022-10-14T08:43:37.182Z,4.142
2022-10-14T08:48:39.000Z,4.142
2022-10-14T08:53:40.736Z,4.142
2022-10-14T08:58:42.083Z,4.142
2022-10-14T09:03:43.473Z,4.144
2022-10-14T09:08:45.066Z,4.144
2022-10-14T09:13:47.134Z,4.144
2022-10-14T09:18:49.738Z,4.144
2022-10-14T09:23:49.983Z,4.144
2022-10-14T09:28:51.952Z,4.144
2022-10-14T09:34:41.471Z,4.144
2022-10-14T09:38:54.984Z,4.146
2022-10-14T09:43:56.782Z,4.146
2022-10-14T09:48:57.994Z,4.146
2022-10-14T09:53:59.510Z,4.146
2022-10-14T09:59:01.494Z,4.146
2022-10-14T10:09:04.963Z,4.148
2022-10-14T10:14:06.585Z,4.148
2022-10-14T10:19:56.171Z,4.148
2022-10-14T10:24:10.070Z,4.148
2022-10-14T10:29:11.756Z,4.148
2022-10-14T10:34:13.452Z,4.148
2022-10-14T10:39:15.286Z,4.148
2022-10-14T10:44:17.327Z,4.15
2022-10-14T10:49:18.789Z,4.15
2022-10-14T10:54:21.024Z,4.15
2022-10-14T10:59:22.801Z,4.15
2022-10-14T11:04:24.634Z,4.15
2022-10-14T11:09:25.875Z,4.15
2022-10-14T11:14:25.776Z,4.15
2022-10-14T11:19:27.738Z,4.156
2022-10-14T11:24:29.475Z,4.156
2022-10-14T11:29:31.480Z,4.156
2022-10-14T11:34:33.308Z,4.154
2022-10-14T11:39:35.687Z,4.156
2022-10-14T11:44:37.137Z,4.156
2022-10-14T11:49:38.740Z,4.156
2022-10-14T11:54:49.602Z,4.156
2022-10-14T11:59:42.158Z,4.156
2022-10-14T12:04:44.245Z,4.156
2022-10-14T12:09:46.152Z,4.156
2022-10-14T12:14:48.290Z,4.156
2022-10-14T12:19:49.707Z,4.156
2022-10-14T12:24:50.905Z,4.156
2022-10-14T12:29:53.049Z,4.156
2022-10-14T12:34:54.412Z,4.156
2022-10-14T12:39:55.792Z,4.156
2022-10-14T12:44:57.841Z,4.156
2022-10-14T12:50:00.046Z,4.158
2022-10-14T12:55:01.835Z,4.158
2022-10-14T13:00:03.794Z,4.158
2022-10-14T13:05:05.441Z,4.156
2022-10-14T13:10:06.654Z,4.158
2022-10-14T13:15:08.903Z,4.158
2022-10-14T13:20:11.272Z,4.158
2022-10-14T13:25:12.421Z,4.156
2022-10-14T13:30:14.690Z,4.158
2022-10-14T13:35:16.437Z,4.158
2022-10-14T13:40:17.906Z,4.158
2022-10-14T13:45:19.968Z,4.158
2022-10-14T13:50:21.840Z,4.156
2022-10-14T13:55:23.331Z,4.158
2022-10-14T14:00:41.376Z,4.156
2022-10-14T14:05:26.795Z,4.158
2022-10-14T14:15:30.386Z,4.156
2022-10-14T14:20:32.220Z,4.158
2022-10-14T14:25:35.213Z,4.156
2022-10-14T14:30:35.218Z,4.156
2022-10-14T14:35:36.800Z,4.156
2022-10-14T14:40:38.076Z,4.156
2022-10-14T14:45:39.416Z,4.156
2022-10-14T14:50:40.908Z,4.154
2022-10-14T14:55:43.007Z,4.154
2022-10-14T15:00:44.998Z,4.154
2022-10-14T15:05:46.830Z,4.154
2022-10-14T15:10:48.251Z,4.154
2022-10-14T15:15:50.103Z,4.154
2022-10-14T15:20:52.002Z,4.154
2022-10-14T15:25:53.193Z,4.152
2022-10-14T15:30:54.847Z,4.152
2022-10-14T15:35:56.582Z,4.152
2022-10-14T15:40:58.819Z,4.152
2022-10-14T15:46:00.596Z,4.152
2022-10-14T15:51:01.696Z,4.152
2022-10-14T15:56:03.815Z,4.152
2022-10-14T16:01:05.350Z,4.15
2022-10-14T16:06:07.328Z,4.15
2022-10-14T16:11:08.938Z,4.15
2022-10-14T16:21:12.283Z,4.15
2022-10-14T16:26:13.703Z,4.15
2022-10-14T16:31:14.887Z,4.15
2022-10-14T16:36:16.139Z,4.15
2022-10-14T16:41:17.495Z,4.15
2022-10-14T16:46:19.276Z,4.15
2022-10-14T16:56:22.624Z,4.148
2022-10-14T17:01:24.171Z,4.148
2022-10-14T17:06:25.550Z,4.148
2022-10-14T17:11:26.839Z,4.148
2022-10-14T17:16:28.636Z,4.148
2022-10-14T17:21:30.726Z,4.148
2022-10-14T17:26:32.410Z,4.148
2022-10-14T17:31:34.211Z,4.148
2022-10-14T17:36:36.289Z,4.148
2022-10-14T17:41:37.839Z,4.148
2022-10-14T17:46:39.501Z,4.148
2022-10-14T17:51:41.816Z,4.148
2022-10-14T17:56:43.545Z,4.148
2022-10-14T18:06:46.834Z,4.148
2022-10-14T18:16:49.450Z,4.146
2022-10-14T18:21:50.959Z,4.146
2022-10-14T18:26:52.462Z,4.146
2022-10-14T18:41:57.507Z,4.146
2022-10-14T18:46:59.668Z,4.146
2022-10-14T18:57:03.094Z,4.146
2022-10-14T19:02:04.941Z,4.146
2022-10-14T19:07:06.585Z,4.146
2022-10-14T19:12:08.088Z,4.146
2022-10-14T19:17:57.722Z,4.146
2022-10-14T19:28:10.478Z,4.146
2022-10-14T19:33:12.312Z,4.144
2022-10-14T19:38:14.425Z,4.144
2022-10-14T19:43:16.223Z,4.144
2022-10-14T19:48:17.932Z,4.144
2022-10-14T19:53:19.904Z,4.144
2022-10-14T19:58:21.656Z,4.144
2022-10-14T20:03:23.084Z,4.144
2022-10-14T20:08:24.249Z,4.144
2022-10-14T20:13:25.720Z,4.144
2022-10-14T20:18:26.964Z,4.144
2022-10-14T20:23:28.492Z,4.144
2022-10-14T20:28:30.267Z,4.142
2022-10-14T20:33:32.138Z,4.142
2022-10-14T20:38:34.149Z,4.142
2022-10-14T20:43:35.347Z,4.142
2022-10-14T20:48:36.653Z,4.142
2022-10-14T20:53:37.905Z,4.142
2022-10-14T20:58:39.252Z,4.142
2022-10-14T21:03:41.329Z,4.142
2022-10-14T21:08:42.619Z,4.142
2022-10-14T21:13:44.065Z,4.142
2022-10-14T21:18:45.389Z,4.142
2022-10-14T21:23:47.523Z,4.142
2022-10-14T21:28:49.410Z,4.14
2022-10-14T21:33:51.082Z,4.14
2022-10-14T21:38:53.163Z,4.14
2022-10-14T21:43:54.797Z,4.14
2022-10-14T21:48:56.012Z,4.14
2022-10-14T21:53:57.851Z,4.14
2022-10-14T21:58:59.919Z,4.14
2022-10-14T22:14:52.316Z,4.14
2022-10-14T22:19:06.563Z,4.14
2022-10-14T22:29:10.043Z,4.14
2022-10-14T22:34:11.861Z,4.14
2022-10-14T22:39:13.874Z,4.14
2022-10-14T22:44:15.597Z,4.14
2022-10-14T22:49:17.305Z,4.138
2022-10-14T22:54:18.894Z,4.138
2022-10-14T22:59:20.299Z,4.138
2022-10-14T23:04:22.192Z,4.138
2022-10-14T23:10:11.813Z,4.138
2022-10-14T23:14:25.577Z,4.138
2022-10-14T23:19:27.766Z,4.138
2022-10-14T23:24:28.946Z,4.138
2022-10-14T23:29:30.903Z,4.138
2022-10-14T23:34:33.076Z,4.138
2022-10-14T23:39:34.479Z,4.138
2022-10-14T23:44:35.891Z,4.136
2022-10-14T23:49:49.060Z,4.136
2022-10-14T23:54:39.589Z,4.136
2022-10-14T23:59:41.605Z,4.136
